createdAt,value
2023-02-02T17:51:08.260Z,2.80
2023-02-02T17:54:46.547Z,2.70
2023-02-02T17:57:15.575Z,4.00
2023-02-02T18:00:10.084Z,3.10
2023-02-02T18:02:41.713Z,2.80
2023-02-02T18:05:18.485Z,4.50
2023-02-02T18:07:54.362Z,2.60
2023-02-02T18:10:26.785Z,3.70
2023-02-02T18:13:23.936Z,3.30
2023-02-02T18:17:12.637Z,4.50
2023-02-02T18:20:58.206Z,3.00
2023-02-02T19:13:18.659Z,4.60
2023-02-02T19:15:48.597Z,7.30
2023-02-02T19:18:22.679Z,6.30
2023-02-02T19:20:55.368Z,4.60
2023-02-02T19:23:31.497Z,5.60
2023-02-02T21:53:07.000Z,0.90
2023-02-02T21:55:41.540Z,1.20
2023-02-02T21:58:44.768Z,0.30
2023-02-02T22:01:31.533Z,0.70
2023-02-02T22:04:04.106Z,0.80
2023-02-02T22:06:41.556Z,1.40
2023-02-02T22:09:29.911Z,0.90
2023-02-02T22:12:24.409Z,0.70
2023-02-02T22:14:54.559Z,1.60
2023-02-02T22:17:44.708Z,0.60
2023-02-02T22:20:46.583Z,1.10
2023-02-02T22:23:27.109Z,1.00
2023-02-02T22:26:01.564Z,1.10
2023-02-02T22:28:39.297Z,0.90
2023-02-02T22:31:14.856Z,0.70
2023-02-02T22:33:45.942Z,1.10
2023-02-02T22:36:19.644Z,1.10
2023-02-02T22:38:50.799Z,1.50
2023-02-02T22:41:21.960Z,1.40
2023-02-02T22:44:02.698Z,1.10
2023-02-02T22:46:37.691Z,1.60
2023-02-02T22:49:09.067Z,1.60
2023-02-02T22:51:40.088Z,1.80
2023-02-02T22:54:14.347Z,1.60
2023-02-02T22:56:48.207Z,1.50
2023-02-02T22:59:24.095Z,1.40
2023-02-02T23:01:55.643Z,1.70
2023-02-02T23:04:28.424Z,1.40
2023-02-02T23:07:00.478Z,1.20
2023-02-02T23:09:33.781Z,1.70
2023-02-02T23:12:05.298Z,2.20
2023-02-02T23:14:37.036Z,1.40
2023-02-02T23:17:08.607Z,2.30
2023-02-02T23:19:39.849Z,1.70
2023-02-02T23:22:15.789Z,3.10
2023-02-02T23:24:47.127Z,2.20
2023-02-02T23:27:18.359Z,1.90
2023-02-02T23:29:52.137Z,2.50
2023-02-02T23:32:23.223Z,2.40
2023-02-02T23:34:54.657Z,2.50
2023-02-02T23:37:26.162Z,2.50
2023-02-02T23:39:57.712Z,3.40
2023-02-02T23:42:28.823Z,2.10
